0R4

Concordia Parish Airport

Vidalia, Louisiana, USA
METAR K0R4 251715Z AUTO 00000KT 10SM SCT070 SCT090 SCT120 26/24 A3003 RMK AO2 T02580241
Observed Flight Rules
Sep-25 @ 17:15 UTC (30 minutes ago) Visual Flight Rules
Visibility Clouds
10 miles
  • Scattered at 7,000' AGL
  • Scattered at 9,000' AGL
  • Scattered at 12,000' AGL
Temperatures Readings
Current 26°C / 79°F
Dewpoint 24°C / 75°F
Humidity 89%
Altimeter 30.03" Hg
Pressure 1017 hPa
Elevation 17
METAR K0R4 251715Z AUTO 00000KT 10SM SCT070 SCT090 SCT120 26/24 A3003 RMK AO2 T02580241
Observed Flight Rules
Sep-25 @ 17:15 UTC
(30 minutes ago)
VFR
Clouds
  • Scattered at 7,000' AGL
  • Scattered at 9,000' AGL
  • Scattered at 12,000' AGL
Temperature Dewpoint
26°C / 79°F 24°C / 75°F
Humidity Altimeter Pressure
89% 30.03" Hg 1017 hPa